createdAt,value
2023-02-09T00:00:08.309Z,96.70
2023-02-09T00:02:39.129Z,97.40
2023-02-09T00:05:08.623Z,97.37
2023-02-09T00:07:37.049Z,97.38
2023-02-09T00:10:05.981Z,97.52
2023-02-09T00:12:54.513Z,97.94
2023-02-09T00:15:23.064Z,97.33
2023-02-09T00:17:51.480Z,98.28
2023-02-09T00:20:20.100Z,98.45
2023-02-09T00:22:48.582Z,98.38
2023-02-09T00:25:17.075Z,98.72
2023-02-09T00:27:46.954Z,98.17
2023-02-09T00:30:15.661Z,98.22
2023-02-09T00:32:44.155Z,98.35
2023-02-09T00:35:12.572Z,97.52
2023-02-09T00:37:42.002Z,97.63
2023-02-09T00:40:11.326Z,97.70
2023-02-09T00:42:39.772Z,98.01
2023-02-09T00:45:10.805Z,97.93
2023-02-09T00:47:39.420Z,98.16
2023-02-09T00:50:08.650Z,98.91
2023-02-09T00:52:37.195Z,98.72
2023-02-09T00:55:06.322Z,99.06
2023-02-09T00:57:36.085Z,99.19
2023-02-09T01:00:05.287Z,99.38
2023-02-09T01:02:35.411Z,99.00
2023-02-09T01:05:04.322Z,98.45
2023-02-09T01:07:32.891Z,98.54
2023-02-09T01:10:03.005Z,98.96
2023-02-09T01:12:32.155Z,98.92
2023-02-09T01:15:01.928Z,99.04
2023-02-09T01:17:30.439Z,99.50
2023-02-09T01:20:00.357Z,99.70
2023-02-09T01:22:28.836Z,99.93
2023-02-09T01:24:57.387Z,99.45
2023-02-09T01:27:25.866Z,99.69
2023-02-09T01:29:54.675Z,99.24
2023-02-09T01:32:23.091Z,99.38
2023-02-09T01:34:52.124Z,99.55
2023-02-09T01:37:22.644Z,99.54
2023-02-09T01:39:51.200Z,99.54
2023-02-09T01:42:21.976Z,99.91
2023-02-09T01:45:23.163Z,100.00
2023-02-09T01:47:57.567Z,100.00
2023-02-09T01:50:27.209Z,100.00
2023-02-09T01:52:57.098Z,99.34
2023-02-09T01:55:28.404Z,99.21
2023-02-09T01:58:02.324Z,99.50
2023-02-09T02:00:30.797Z,99.63
2023-02-09T02:03:04.433Z,99.79
2023-02-09T02:05:38.568Z,99.56
2023-02-09T02:08:13.294Z,99.32
2023-02-09T02:10:42.009Z,99.61
2023-02-09T02:13:10.454Z,99.66
2023-02-09T02:15:50.289Z,99.45
2023-02-09T02:18:32.365Z,98.65
2023-02-09T02:21:40.725Z,99.22
2023-02-09T02:24:46.662Z,98.88
2023-02-09T02:27:30.208Z,98.60
2023-02-09T02:30:34.178Z,99.95
2023-02-09T02:33:17.539Z,99.40
2023-02-09T02:35:52.052Z,99.23
2023-02-09T02:38:28.934Z,99.66
2023-02-09T02:41:05.411Z,99.79
2023-02-09T02:43:44.639Z,100.00
2023-02-09T02:46:20.289Z,99.83
2023-02-09T02:48:56.535Z,99.98
2023-02-09T02:51:31.173Z,99.59
2023-02-09T02:54:03.445Z,99.53
2023-02-09T02:56:37.673Z,99.25
2023-02-09T02:59:08.118Z,99.50
2023-02-09T03:01:41.820Z,99.11
2023-02-09T03:04:14.400Z,99.00
2023-02-09T03:06:42.834Z,98.99
2023-02-09T03:09:11.362Z,98.79
2023-02-09T03:11:43.570Z,98.51
2023-02-09T03:14:38.420Z,99.14
2023-02-09T03:17:19.987Z,99.48
2023-02-09T03:19:54.258Z,99.36
2023-02-09T03:22:28.021Z,99.48
2023-02-09T03:25:02.982Z,99.27
2023-02-09T03:27:34.896Z,99.86
2023-02-09T03:30:05.764Z,99.56
2023-02-09T03:32:38.914Z,98.63
2023-02-09T03:35:11.598Z,99.24
2023-02-09T03:37:40.497Z,99.19
2023-02-09T03:40:09.496Z,99.12
2023-02-09T03:42:37.964Z,99.61
2023-02-09T03:45:07.948Z,99.16
2023-02-09T03:47:36.719Z,98.85
2023-02-09T03:50:06.802Z,98.98
2023-02-09T03:52:37.013Z,98.82
2023-02-09T03:55:05.692Z,98.84
2023-02-09T03:57:34.174Z,98.43
2023-02-09T04:00:03.543Z,97.90
2023-02-09T04:02:32.137Z,98.74
2023-02-09T04:05:00.759Z,98.42
2023-02-09T04:07:29.389Z,98.61
2023-02-09T04:09:59.252Z,99.11
2023-02-09T04:12:27.761Z,98.89
2023-02-09T04:14:56.203Z,98.83
2023-02-09T04:17:24.802Z,97.82
2023-02-09T04:19:53.310Z,97.82
2023-02-09T04:22:21.717Z,97.50
2023-02-09T04:24:52.420Z,98.25
2023-02-09T04:27:22.239Z,98.68
2023-02-09T04:29:50.674Z,98.40
2023-02-09T04:32:19.099Z,98.72
2023-02-09T04:34:47.660Z,99.16
2023-02-09T04:37:16.080Z,99.20
2023-02-09T04:39:44.499Z,97.71
2023-02-09T04:42:12.982Z,97.85
2023-02-09T04:44:42.750Z,97.77
2023-02-09T04:47:11.195Z,97.90
2023-02-09T04:49:40.696Z,97.28
2023-02-09T04:52:09.163Z,97.50
2023-02-09T04:54:37.621Z,96.88
2023-02-09T04:57:23.797Z,97.40
2023-02-09T04:59:53.579Z,98.00
2023-02-09T05:02:22.001Z,97.74
2023-02-09T05:04:50.667Z,97.32
2023-02-09T05:07:19.197Z,96.21
2023-02-09T05:09:47.602Z,95.96
2023-02-09T05:12:16.020Z,96.10
2023-02-09T05:14:44.569Z,96.43
2023-02-09T05:17:14.579Z,96.38
2023-02-09T05:19:42.981Z,96.33
2023-02-09T05:22:11.502Z,96.47
2023-02-09T05:24:39.920Z,96.30
2023-02-09T05:27:08.390Z,96.34
2023-02-09T05:29:36.829Z,96.02
2023-02-09T05:32:05.771Z,95.39
2023-02-09T05:34:35.709Z,95.25
2023-02-09T05:37:04.575Z,94.75
2023-02-09T05:39:33.000Z,94.19
2023-02-09T05:42:16.356Z,93.85
2023-02-09T05:44:46.008Z,93.72
2023-02-09T05:47:16.046Z,93.23
2023-02-09T05:49:46.173Z,93.13
2023-02-09T05:52:16.735Z,93.54
2023-02-09T05:54:45.836Z,93.47
2023-02-09T05:57:14.437Z,94.08
2023-02-09T05:59:43.026Z,93.95
2023-02-09T06:02:11.807Z,94.08
2023-02-09T06:04:40.739Z,94.69
2023-02-09T06:07:12.028Z,94.04
2023-02-09T06:09:41.826Z,93.80
2023-02-09T06:12:10.315Z,93.50
2023-02-09T06:14:38.986Z,93.54
2023-02-09T06:17:07.530Z,93.95
2023-02-09T06:19:35.978Z,93.83
2023-02-09T06:22:04.484Z,94.03
2023-02-09T06:24:34.515Z,93.92
2023-02-09T06:27:03.108Z,93.43
2023-02-09T06:29:31.663Z,93.41
2023-02-09T06:32:00.220Z,93.45
2023-02-09T06:34:29.342Z,93.72
2023-02-09T06:36:57.860Z,93.47
2023-02-09T06:39:26.574Z,93.73
2023-02-09T06:41:56.691Z,93.80
2023-02-09T06:44:25.134Z,94.37
2023-02-09T06:46:53.640Z,94.30
2023-02-09T06:49:24.139Z,94.64
2023-02-09T06:51:52.728Z,94.52
2023-02-09T06:54:21.298Z,94.87
2023-02-09T06:56:49.913Z,95.02
2023-02-09T06:59:19.720Z,94.77
2023-02-09T07:01:52.779Z,94.44
2023-02-09T07:04:23.097Z,94.73
2023-02-09T07:06:51.603Z,94.73
2023-02-09T07:09:20.054Z,94.99
2023-02-09T07:11:48.494Z,94.98
2023-02-09T07:14:16.963Z,95.05
2023-02-09T07:16:46.785Z,94.68
2023-02-09T07:19:15.244Z,93.84
2023-02-09T07:21:43.698Z,93.16
2023-02-09T07:24:12.181Z,93.41
2023-02-09T07:26:40.625Z,93.61
2023-02-09T07:29:09.486Z,93.71
2023-02-09T07:31:38.674Z,93.10
2023-02-09T07:34:08.653Z,92.50
2023-02-09T07:36:37.182Z,92.77
2023-02-09T07:39:05.748Z,92.41
2023-02-09T07:41:34.357Z,91.64
2023-02-09T07:44:03.124Z,92.04
2023-02-09T07:46:31.647Z,91.62
2023-02-09T07:49:01.583Z,91.65
2023-02-09T07:51:33.467Z,90.93
2023-02-09T07:54:02.900Z,90.79
2023-02-09T07:56:31.747Z,90.74
2023-02-09T07:59:00.321Z,90.88
2023-02-09T08:01:28.923Z,89.85
2023-02-09T08:03:57.563Z,89.68
2023-02-09T08:06:41.545Z,89.94
2023-02-09T08:09:13.665Z,89.75
2023-02-09T08:11:45.989Z,89.18
2023-02-09T08:14:18.636Z,89.29
2023-02-09T08:16:48.379Z,89.39
2023-02-09T08:19:22.659Z,89.10
2023-02-09T08:21:51.440Z,88.80
2023-02-09T08:24:22.418Z,88.69
2023-02-09T08:26:50.970Z,88.03
2023-02-09T08:29:19.618Z,87.29
2023-02-09T08:31:48.186Z,87.09
2023-02-09T08:34:16.671Z,87.10
2023-02-09T08:36:45.301Z,85.97
2023-02-09T08:39:13.706Z,85.81
2023-02-09T08:41:45.863Z,85.48
2023-02-09T08:44:16.868Z,85.52
2023-02-09T08:46:45.389Z,84.32
2023-02-09T08:49:14.316Z,83.57
2023-02-09T08:51:42.720Z,84.04
2023-02-09T08:54:11.201Z,83.95
2023-02-09T08:56:39.708Z,82.48
2023-02-09T08:59:09.534Z,83.46
2023-02-09T09:01:40.197Z,83.81
2023-02-09T09:04:09.844Z,83.19
2023-02-09T09:06:38.356Z,82.82
2023-02-09T09:09:07.312Z,82.14
2023-02-09T09:11:35.759Z,80.59
2023-02-09T09:14:04.332Z,81.55
2023-02-09T09:16:34.944Z,82.04
2023-02-09T09:19:05.540Z,82.21
2023-02-09T09:21:34.601Z,80.95
2023-02-09T09:24:03.139Z,81.45
2023-02-09T09:26:31.602Z,80.81
2023-02-09T09:29:00.145Z,82.02
2023-02-09T09:31:30.623Z,80.08
2023-02-09T09:34:00.645Z,79.29
2023-02-09T09:36:29.087Z,79.30
2023-02-09T09:38:57.778Z,79.13
2023-02-09T09:41:32.496Z,79.03
2023-02-09T09:44:02.628Z,78.38
2023-02-09T09:46:36.929Z,77.91
2023-02-09T09:49:06.891Z,76.72
2023-02-09T09:51:40.622Z,77.01
2023-02-09T09:54:15.291Z,75.81
2023-02-09T09:56:43.794Z,74.91
2023-02-09T09:59:18.728Z,74.12
2023-02-09T10:01:47.936Z,73.96
2023-02-09T10:04:18.296Z,73.68
2023-02-09T10:06:49.068Z,72.73
2023-02-09T10:09:30.111Z,72.34
2023-02-09T10:12:14.424Z,72.12
2023-02-09T10:14:43.423Z,71.23
2023-02-09T10:17:11.994Z,70.49
2023-02-09T10:19:41.872Z,69.99
2023-02-09T10:22:13.639Z,70.05
2023-02-09T10:24:42.057Z,69.97
2023-02-09T10:27:25.436Z,70.02
2023-02-09T10:29:53.898Z,69.31
2023-02-09T10:32:24.756Z,68.55
2023-02-09T10:34:56.890Z,67.12
2023-02-09T10:37:29.109Z,66.57
2023-02-09T10:40:07.435Z,64.91
2023-02-09T10:42:37.596Z,63.49
2023-02-09T10:45:10.249Z,62.84
2023-02-09T10:47:38.732Z,61.85
2023-02-09T10:50:18.087Z,61.48
2023-02-09T10:52:57.816Z,61.05
2023-02-09T10:55:30.087Z,61.55
2023-02-09T10:58:07.660Z,59.81
2023-02-09T11:00:44.316Z,59.02
2023-02-09T11:03:18.280Z,58.81
2023-02-09T11:05:49.022Z,59.17
2023-02-09T11:08:21.764Z,59.06
2023-02-09T11:11:01.909Z,59.83
2023-02-09T11:13:32.425Z,58.88
2023-02-09T11:16:31.591Z,57.79
2023-02-09T11:19:07.269Z,56.97
2023-02-09T11:21:53.618Z,55.67
2023-02-09T11:24:32.331Z,56.62
2023-02-09T11:27:07.086Z,56.49
2023-02-09T11:29:42.011Z,55.51
2023-02-09T11:32:20.546Z,54.58
2023-02-09T11:35:09.342Z,55.02
2023-02-09T11:37:50.052Z,55.40
2023-02-09T11:40:34.162Z,55.79
2023-02-09T11:43:21.606Z,55.44
2023-02-09T11:45:51.347Z,55.87
2023-02-09T11:48:26.055Z,55.90
2023-02-09T11:51:03.772Z,56.02
2023-02-09T11:53:43.683Z,54.57
2023-02-09T11:56:14.046Z,55.05
2023-02-09T11:58:49.832Z,55.77
2023-02-09T12:01:31.452Z,55.91
2023-02-09T12:04:11.285Z,56.22
2023-02-09T12:06:44.291Z,56.27
2023-02-09T12:09:31.695Z,56.03
2023-02-09T12:12:12.004Z,55.41
2023-02-09T12:14:49.330Z,54.66
2023-02-09T12:17:22.711Z,54.73
2023-02-09T12:19:59.383Z,55.49
2023-02-09T12:22:51.738Z,55.87
2023-02-09T12:25:34.517Z,56.43
2023-02-09T12:28:17.979Z,56.99
2023-02-09T12:31:06.859Z,56.63
2023-02-09T12:33:37.833Z,57.79
2023-02-09T12:36:26.668Z,57.75
2023-02-09T12:39:05.548Z,58.96
2023-02-09T12:42:12.729Z,58.92
2023-02-09T12:44:56.190Z,56.82
2023-02-09T12:47:47.816Z,54.70
2023-02-09T12:50:34.141Z,54.73
2023-02-09T12:53:35.705Z,52.84
2023-02-09T12:56:24.269Z,53.27
2023-02-09T12:59:16.713Z,52.54
2023-02-09T13:02:11.117Z,52.17
2023-02-09T13:04:46.111Z,51.71
2023-02-09T13:07:25.809Z,51.15
2023-02-09T13:09:56.632Z,50.84
2023-02-09T13:12:36.369Z,50.19
2023-02-09T13:15:12.973Z,50.97
2023-02-09T13:17:50.150Z,49.49
2023-02-09T13:20:32.499Z,50.39
2023-02-09T13:23:16.360Z,48.20
2023-02-09T13:25:47.156Z,49.67
2023-02-09T13:28:18.120Z,49.71
2023-02-09T13:30:47.740Z,48.53
2023-02-09T13:33:36.648Z,48.94
2023-02-09T13:36:24.662Z,50.00
2023-02-09T13:38:54.522Z,49.24
2023-02-09T13:41:33.220Z,48.57
2023-02-09T13:44:01.946Z,49.01
2023-02-09T13:46:34.496Z,49.21
2023-02-09T13:49:19.063Z,50.76
2023-02-09T13:51:47.551Z,50.64
2023-02-09T13:54:20.526Z,51.09
2023-02-09T13:56:49.298Z,51.71
2023-02-09T13:59:17.874Z,52.02
2023-02-09T14:01:47.403Z,53.70
2023-02-09T14:04:20.544Z,53.40
2023-02-09T14:06:53.148Z,53.86
2023-02-09T14:09:27.044Z,55.21
2023-02-09T14:11:58.584Z,54.46
2023-02-09T14:14:51.957Z,54.96
2023-02-09T14:17:26.510Z,56.32
2023-02-09T14:19:57.852Z,56.81
2023-02-09T14:22:35.060Z,56.78
2023-02-09T14:25:18.821Z,57.00
2023-02-09T14:27:49.048Z,58.27
2023-02-09T14:30:20.626Z,57.69
2023-02-09T14:32:54.093Z,58.14
2023-02-09T14:35:27.226Z,57.51
2023-02-09T14:37:59.154Z,58.24
2023-02-09T14:40:33.985Z,57.45
2023-02-09T14:43:05.241Z,57.99
2023-02-09T14:45:39.514Z,58.66
2023-02-09T14:48:21.808Z,59.40
2023-02-09T14:50:56.521Z,58.46
2023-02-09T14:53:28.129Z,58.96
2023-02-09T14:55:58.029Z,58.83
2023-02-09T14:58:28.741Z,59.00
2023-02-09T15:00:59.063Z,58.53
2023-02-09T15:03:27.793Z,58.69
2023-02-09T15:06:01.202Z,59.31
2023-02-09T15:08:32.452Z,58.69
2023-02-09T15:11:24.095Z,58.91
2023-02-09T15:13:57.382Z,59.44
2023-02-09T15:16:25.938Z,60.12
2023-02-09T15:18:54.422Z,60.83
2023-02-09T15:21:24.252Z,60.97
2023-02-09T15:23:52.778Z,61.58
2023-02-09T15:26:22.810Z,60.95
2023-02-09T15:28:51.260Z,61.53
2023-02-09T15:31:19.845Z,61.21
2023-02-09T15:33:48.453Z,60.37
2023-02-09T15:36:20.738Z,60.72
2023-02-09T15:38:50.674Z,61.19
2023-02-09T15:41:36.648Z,61.23
2023-02-09T15:44:32.471Z,62.50
2023-02-09T15:47:18.188Z,63.22
2023-02-09T15:49:46.754Z,64.11
2023-02-09T15:52:17.491Z,64.48
2023-02-09T15:54:47.416Z,64.95
2023-02-09T15:57:16.577Z,65.70
2023-02-09T15:59:46.372Z,66.44
2023-02-09T16:02:19.341Z,67.31
2023-02-09T16:04:49.136Z,67.24
2023-02-09T16:07:22.923Z,68.52
2023-02-09T16:09:53.415Z,68.71
2023-02-09T16:12:21.903Z,68.57
2023-02-09T16:14:52.354Z,68.46
2023-02-09T16:17:21.638Z,69.41
2023-02-09T16:19:50.120Z,68.92
2023-02-09T16:22:22.662Z,69.54
2023-02-09T16:24:52.872Z,69.42
2023-02-09T16:27:25.586Z,70.05
2023-02-09T16:29:54.084Z,69.98
2023-02-09T16:32:23.835Z,70.07
2023-02-09T16:34:52.775Z,69.96
2023-02-09T16:37:26.473Z,70.34
2023-02-09T16:39:58.038Z,70.83
2023-02-09T16:42:26.936Z,71.56
2023-02-09T16:44:56.720Z,71.58
2023-02-09T16:47:27.906Z,71.68
2023-02-09T16:50:00.217Z,71.75
2023-02-09T16:52:30.341Z,72.24
2023-02-09T16:55:02.200Z,72.40
2023-02-09T16:57:30.720Z,72.54
2023-02-09T16:59:59.340Z,71.83
2023-02-09T17:02:37.254Z,72.16
2023-02-09T17:05:17.148Z,71.63
2023-02-09T17:07:54.338Z,71.84
2023-02-09T17:10:27.633Z,71.53
2023-02-09T17:12:56.751Z,72.22
2023-02-09T17:15:31.069Z,71.75
2023-02-09T17:18:02.813Z,72.42
2023-02-09T17:20:37.932Z,72.56
2023-02-09T17:23:06.773Z,72.36
2023-02-09T17:25:36.686Z,72.44
2023-02-09T17:28:05.728Z,72.42
2023-02-09T17:30:34.966Z,72.95
2023-02-09T17:33:05.814Z,72.90
2023-02-09T17:36:10.122Z,72.83
2023-02-09T17:38:29.616Z,73.33
2023-02-09T17:41:01.423Z,73.31
2023-02-09T17:43:30.009Z,73.20
2023-02-09T17:45:59.359Z,73.08
2023-02-09T17:48:28.039Z,73.13
2023-02-09T17:50:57.960Z,72.55
2023-02-09T17:53:29.654Z,73.38
2023-02-09T17:55:59.955Z,72.59
2023-02-09T17:58:28.544Z,73.03
2023-02-09T18:00:57.956Z,73.51
2023-02-09T18:03:27.031Z,73.51
2023-02-09T18:05:58.746Z,73.38
2023-02-09T18:08:28.079Z,73.50
2023-02-09T18:10:58.737Z,73.62
2023-02-09T18:13:28.765Z,73.53
2023-02-09T18:15:57.388Z,74.00
2023-02-09T18:18:26.169Z,73.44
2023-02-09T18:20:54.690Z,73.59
2023-02-09T18:23:23.911Z,74.01
2023-02-09T18:25:52.499Z,73.23
2023-02-09T18:28:21.070Z,74.04
2023-02-09T18:30:50.980Z,73.99
2023-02-09T18:33:19.606Z,74.07
2023-02-09T18:35:48.361Z,74.24
2023-02-09T18:38:17.128Z,74.69
2023-02-09T18:40:45.713Z,75.14
2023-02-09T18:43:15.822Z,74.54
2023-02-09T18:45:45.036Z,75.21
2023-02-09T18:48:15.143Z,75.61
2023-02-09T18:50:43.640Z,75.58
2023-02-09T18:53:12.964Z,75.46
2023-02-09T18:55:41.681Z,75.65
2023-02-09T18:58:10.381Z,75.72
2023-02-09T19:00:38.964Z,75.67
2023-02-09T19:03:07.544Z,75.81
2023-02-09T19:05:37.423Z,76.24
2023-02-09T19:08:07.456Z,76.96
2023-02-09T19:10:36.147Z,76.64
2023-02-09T19:13:05.719Z,77.20
2023-02-09T19:15:35.582Z,76.67
2023-02-09T19:18:04.283Z,77.13
2023-02-09T19:20:34.321Z,77.93
2023-02-09T19:23:04.430Z,76.99
2023-02-09T19:25:33.220Z,76.70
2023-02-09T19:28:01.774Z,77.75
2023-02-09T19:30:30.391Z,77.92
2023-02-09T19:33:00.136Z,77.98
2023-02-09T19:35:29.417Z,77.97
2023-02-09T19:37:58.866Z,77.56
2023-02-09T19:40:35.583Z,78.07
2023-02-09T19:43:05.121Z,78.36
2023-02-09T19:45:37.564Z,78.42
2023-02-09T19:48:07.523Z,78.67
2023-02-09T19:50:37.717Z,78.32
2023-02-09T19:53:07.377Z,79.34
2023-02-09T19:55:37.397Z,79.08
2023-02-09T19:58:05.992Z,79.66
2023-02-09T20:00:34.757Z,79.82
2023-02-09T20:03:03.614Z,79.82
2023-02-09T20:05:32.081Z,80.17
2023-02-09T20:08:00.967Z,79.75
2023-02-09T20:10:29.434Z,80.40
2023-02-09T20:12:59.278Z,80.85
2023-02-09T20:15:27.861Z,80.96
2023-02-09T20:17:56.559Z,81.28
2023-02-09T20:20:25.655Z,81.62
2023-02-09T20:22:55.654Z,81.71
2023-02-09T20:25:24.200Z,81.51
2023-02-09T20:27:52.896Z,81.70
2023-02-09T20:30:22.833Z,81.79
2023-02-09T20:32:51.333Z,82.52
2023-02-09T20:35:20.001Z,81.87
2023-02-09T20:37:48.635Z,82.23
2023-02-09T20:40:17.933Z,82.13
2023-02-09T20:43:04.127Z,82.25
2023-02-09T20:45:51.771Z,82.38
2023-02-09T20:48:20.884Z,82.69
2023-02-09T20:50:49.526Z,82.96
2023-02-09T20:53:18.114Z,82.97
2023-02-09T20:55:46.618Z,82.38
2023-02-09T20:58:15.254Z,82.63
2023-02-09T21:00:45.190Z,82.42
2023-02-09T21:03:13.860Z,81.63
2023-02-09T21:05:42.355Z,82.08
2023-02-09T21:08:10.802Z,81.76
2023-02-09T21:10:39.323Z,81.93
2023-02-09T21:13:09.390Z,81.65
2023-02-09T21:15:41.660Z,81.71
2023-02-09T21:18:11.564Z,81.73
2023-02-09T21:20:40.277Z,82.06
2023-02-09T21:23:08.748Z,81.67
2023-02-09T21:25:37.414Z,82.66
2023-02-09T21:28:06.114Z,82.46
2023-02-09T21:30:34.667Z,82.61
2023-02-09T21:33:03.410Z,82.78
2023-02-09T21:35:33.414Z,82.51
2023-02-09T21:38:01.819Z,83.21
2023-02-09T21:40:30.260Z,83.41
2023-02-09T21:42:58.966Z,83.72
2023-02-09T21:45:27.438Z,83.22
2023-02-09T21:47:55.968Z,83.52
2023-02-09T21:50:24.544Z,83.29
2023-02-09T21:52:55.044Z,83.75
2023-02-09T21:55:23.605Z,83.95
2023-02-09T21:57:52.038Z,84.29
2023-02-09T22:00:20.906Z,84.61
2023-02-09T22:02:53.306Z,84.52
2023-02-09T22:05:22.099Z,84.31
2023-02-09T22:07:50.807Z,84.23
2023-02-09T22:10:20.705Z,83.80
2023-02-09T22:12:49.825Z,83.64
2023-02-09T22:15:19.193Z,84.51
2023-02-09T22:17:48.375Z,83.49
2023-02-09T22:20:16.966Z,83.50
2023-02-09T22:22:46.142Z,83.50
2023-02-09T22:25:14.632Z,82.88
2023-02-09T22:27:44.446Z,82.29
2023-02-09T22:30:13.414Z,82.72
2023-02-09T22:32:41.982Z,82.00
2023-02-09T22:35:10.423Z,81.58
2023-02-09T22:37:39.000Z,81.58
2023-02-09T22:40:08.208Z,81.42
2023-02-09T22:42:36.745Z,81.54
2023-02-09T22:45:08.206Z,80.87
2023-02-09T22:47:36.706Z,80.64
2023-02-09T22:50:05.734Z,80.64
2023-02-09T22:52:34.394Z,80.06
2023-02-09T22:55:02.848Z,80.73
2023-02-09T22:57:31.301Z,80.71
2023-02-09T22:59:59.707Z,80.14
2023-02-09T23:02:29.618Z,79.61
2023-02-09T23:04:58.044Z,79.14
2023-02-09T23:07:27.510Z,79.13
2023-02-09T23:09:55.902Z,78.32
2023-02-09T23:12:24.370Z,78.98
2023-02-09T23:14:54.703Z,78.98
2023-02-09T23:17:23.251Z,78.48
2023-02-09T23:19:53.170Z,79.00
2023-02-09T23:22:21.579Z,77.79
2023-02-09T23:24:50.005Z,78.27
2023-02-09T23:27:19.417Z,78.60
2023-02-09T23:29:47.989Z,79.23
2023-02-09T23:32:16.440Z,79.12
2023-02-09T23:34:45.337Z,78.54
2023-02-09T23:37:19.186Z,79.43
2023-02-09T23:40:03.457Z,80.14
2023-02-09T23:42:31.907Z,80.55
2023-02-09T23:45:00.423Z,80.97
2023-02-09T23:47:29.078Z,81.27
2023-02-09T23:49:57.843Z,81.29
2023-02-09T23:52:27.655Z,82.51
2023-02-09T23:54:56.091Z,82.86
2023-02-09T23:57:24.618Z,82.40
2023-02-09T23:59:53.158Z,82.82
